sensor_id;sensor_type;location;lat;lon;timestamp;temperature;humidity
51619;DHT22;38518;53.164;5.430;2022-12-11T00:01:36;2.30;86.10
51619;DHT22;38518;53.164;5.430;2022-12-11T00:04:02;1.40;88.50
51619;DHT22;38518;53.164;5.430;2022-12-11T00:06:28;2.70;93.80
51619;DHT22;38518;53.164;5.430;2022-12-11T00:08:59;2.80;97.10
51619;DHT22;38518;53.164;5.430;2022-12-11T00:11:25;2.50;95.20
51619;DHT22;38518;53.164;5.430;2022-12-11T00:13:54;1.40;90.50
51619;DHT22;38518;53.164;5.430;2022-12-11T00:16:20;2.80;47.40
51619;DHT22;38518;53.164;5.430;2022-12-11T00:18:45;2.40;94.10
51619;DHT22;38518;53.164;5.430;2022-12-11T00:21:14;1.30;94.80
51619;DHT22;38518;53.164;5.430;2022-12-11T00:23:40;2.90;94.20
51619;DHT22;38518;53.164;5.430;2022-12-11T00:26:13;2.50;92.90
51619;DHT22;38518;53.164;5.430;2022-12-11T00:28:43;2.90;92.10
51619;DHT22;38518;53.164;5.430;2022-12-11T00:31:15;1.60;89.70
51619;DHT22;38518;53.164;5.430;2022-12-11T00:33:42;1.50;89.90
51619;DHT22;38518;53.164;5.430;2022-12-11T00:36:20;1.60;88.60
51619;DHT22;38518;53.164;5.430;2022-12-11T00:38:47;2.60;85.30
51619;DHT22;38518;53.164;5.430;2022-12-11T00:41:13;2.50;82.60
51619;DHT22;38518;53.164;5.430;2022-12-11T00:43:40;1.70;76.90
51619;DHT22;38518;53.164;5.430;2022-12-11T00:46:06;1.40;75.60
51619;DHT22;38518;53.164;5.430;2022-12-11T00:48:31;2.80;75.10
51619;DHT22;38518;53.164;5.430;2022-12-11T00:50:57;2.40;67.70
51619;DHT22;38518;53.164;5.430;2022-12-11T00:53:26;4.50;64.50
51619;DHT22;38518;53.164;5.430;2022-12-11T00:55:52;2.30;52.80
51619;DHT22;38518;53.164;5.430;2022-12-11T00:58:18;0.90;50.90
51619;DHT22;38518;53.164;5.430;2022-12-11T01:00:44;2.40;40.60
51619;DHT22;38518;53.164;5.430;2022-12-11T01:03:12;1.70;43.30
51619;DHT22;38518;53.164;5.430;2022-12-11T01:05:38;1.50;15.30
51619;DHT22;38518;53.164;5.430;2022-12-11T01:08:04;2.90;28.40
51619;DHT22;38518;53.164;5.430;2022-12-11T01:10:31;1.50;13.20
51619;DHT22;38518;53.164;5.430;2022-12-11T01:13:04;3.30;5.80
51619;DHT22;38518;53.164;5.430;2022-12-11T01:15:37;2.60;1.00
51619;DHT22;38518;53.164;5.430;2022-12-11T01:18:04;1.00;1.00
51619;DHT22;38518;53.164;5.430;2022-12-11T01:20:30;1.90;1.00
51619;DHT22;38518;53.164;5.430;2022-12-11T01:22:58;1.60;1.00
51619;DHT22;38518;53.164;5.430;2022-12-11T01:25:25;3.30;1.00
51619;DHT22;38518;53.164;5.430;2022-12-11T01:27:52;3.40;1.00
51619;DHT22;38518;53.164;5.430;2022-12-11T01:30:20;3.00;1.00
51619;DHT22;38518;53.164;5.430;2022-12-11T01:32:46;1.60;1.00
51619;DHT22;38518;53.164;5.430;2022-12-11T01:35:13;1.80;1.00
51619;DHT22;38518;53.164;5.430;2022-12-11T01:37:39;2.30;1.00
51619;DHT22;38518;53.164;5.430;2022-12-11T01:40:06;2.40;1.00
51619;DHT22;38518;53.164;5.430;2022-12-11T01:42:33;1.60;1.00
51619;DHT22;38518;53.164;5.430;2022-12-11T01:47:53;1.80;1.00
51619;DHT22;38518;53.164;5.430;2022-12-11T01:50:20;2.70;1.00
51619;DHT22;38518;53.164;5.430;2022-12-11T01:52:46;3.30;1.00
51619;DHT22;38518;53.164;5.430;2022-12-11T01:55:13;1.70;1.00
51619;DHT22;38518;53.164;5.430;2022-12-11T01:57:42;2.70;1.00
51619;DHT22;38518;53.164;5.430;2022-12-11T02:00:09;3.10;1.00
51619;DHT22;38518;53.164;5.430;2022-12-11T02:02:39;1.60;1.00
51619;DHT22;38518;53.164;5.430;2022-12-11T02:05:06;1.70;1.00
51619;DHT22;38518;53.164;5.430;2022-12-11T02:07:38;1.80;1.00
51619;DHT22;38518;53.164;5.430;2022-12-11T02:10:05;0.80;1.00
51619;DHT22;38518;53.164;5.430;2022-12-11T02:13:08;1.60;1.00
51619;DHT22;38518;53.164;5.430;2022-12-11T02:15:58;1.70;1.00
51619;DHT22;38518;53.164;5.430;2022-12-11T02:18:38;1.60;1.00
51619;DHT22;38518;53.164;5.430;2022-12-11T02:21:19;1.60;1.00
51619;DHT22;38518;53.164;5.430;2022-12-11T02:27:21;1.70;1.00
51619;DHT22;38518;53.164;5.430;2022-12-11T02:32:17;1.60;99.90
51619;DHT22;38518;53.164;5.430;2022-12-11T02:37:35;1.70;99.90
51619;DHT22;38518;53.164;5.430;2022-12-11T02:40:04;2.20;99.90
51619;DHT22;38518;53.164;5.430;2022-12-11T02:42:32;2.40;99.90
51619;DHT22;38518;53.164;5.430;2022-12-11T02:45:02;3.00;99.90
51619;DHT22;38518;53.164;5.430;2022-12-11T02:47:29;2.70;99.90
51619;DHT22;38518;53.164;5.430;2022-12-11T02:49:58;2.20;99.90
51619;DHT22;38518;53.164;5.430;2022-12-11T02:52:26;1.50;99.90
51619;DHT22;38518;53.164;5.430;2022-12-11T02:54:56;2.30;99.90
51619;DHT22;38518;53.164;5.430;2022-12-11T02:57:35;1.60;99.90
51619;DHT22;38518;53.164;5.430;2022-12-11T03:00:07;1.70;99.90
51619;DHT22;38518;53.164;5.430;2022-12-11T03:02:33;1.70;99.90
51619;DHT22;38518;53.164;5.430;2022-12-11T03:04:59;1.70;99.90
51619;DHT22;38518;53.164;5.430;2022-12-11T03:07:32;3.10;99.90
51619;DHT22;38518;53.164;5.430;2022-12-11T03:09:58;1.60;99.90
51619;DHT22;38518;53.164;5.430;2022-12-11T03:12:30;2.40;99.90
51619;DHT22;38518;53.164;5.430;2022-12-11T03:15:03;2.40;99.90
51619;DHT22;38518;53.164;5.430;2022-12-11T03:17:37;2.50;99.90
51619;DHT22;38518;53.164;5.430;2022-12-11T03:23:27;1.70;99.90
51619;DHT22;38518;53.164;5.430;2022-12-11T03:26:02;1.60;99.90
51619;DHT22;38518;53.164;5.430;2022-12-11T03:28:33;1.60;99.90
51619;DHT22;38518;53.164;5.430;2022-12-11T03:31:05;2.90;99.90
51619;DHT22;38518;53.164;5.430;2022-12-11T03:33:36;1.80;99.90
51619;DHT22;38518;53.164;5.430;2022-12-11T03:36:05;3.10;99.90
51619;DHT22;38518;53.164;5.430;2022-12-11T03:39:08;1.70;99.90
51619;DHT22;38518;53.164;5.430;2022-12-11T03:41:38;1.80;99.90
51619;DHT22;38518;53.164;5.430;2022-12-11T03:44:05;2.60;99.90
51619;DHT22;38518;53.164;5.430;2022-12-11T03:46:35;3.10;99.90
51619;DHT22;38518;53.164;5.430;2022-12-11T03:49:08;1.80;99.90
51619;DHT22;38518;53.164;5.430;2022-12-11T03:51:35;1.90;99.90
51619;DHT22;38518;53.164;5.430;2022-12-11T03:54:04;1.80;99.90
51619;DHT22;38518;53.164;5.430;2022-12-11T03:56:33;2.30;99.90
51619;DHT22;38518;53.164;5.430;2022-12-11T03:59:00;2.30;99.90
51619;DHT22;38518;53.164;5.430;2022-12-11T04:01:26;1.90;99.90
51619;DHT22;38518;53.164;5.430;2022-12-11T04:03:54;1.90;99.90
51619;DHT22;38518;53.164;5.430;2022-12-11T04:06:20;1.90;99.90
51619;DHT22;38518;53.164;5.430;2022-12-11T04:08:46;1.80;99.90
51619;DHT22;38518;53.164;5.430;2022-12-11T04:11:12;2.00;99.90
51619;DHT22;38518;53.164;5.430;2022-12-11T04:13:56;1.80;99.90
51619;DHT22;38518;53.164;5.430;2022-12-11T04:16:40;1.70;99.90
51619;DHT22;38518;53.164;5.430;2022-12-11T04:19:07;1.80;99.90
51619;DHT22;38518;53.164;5.430;2022-12-11T04:21:52;2.50;99.90
51619;DHT22;38518;53.164;5.430;2022-12-11T04:24:37;3.30;99.90
51619;DHT22;38518;53.164;5.430;2022-12-11T04:27:03;1.80;99.90
51619;DHT22;38518;53.164;5.430;2022-12-11T04:29:29;1.80;99.90
51619;DHT22;38518;53.164;5.430;2022-12-11T04:31:54;1.80;99.90
51619;DHT22;38518;53.164;5.430;2022-12-11T04:34:20;1.70;99.90
51619;DHT22;38518;53.164;5.430;2022-12-11T04:36:46;3.30;99.90
51619;DHT22;38518;53.164;5.430;2022-12-11T04:39:12;1.80;99.90
51619;DHT22;38518;53.164;5.430;2022-12-11T04:41:38;2.30;99.90
51619;DHT22;38518;53.164;5.430;2022-12-11T04:44:06;2.30;99.90
51619;DHT22;38518;53.164;5.430;2022-12-11T04:46:33;1.60;99.90
51619;DHT22;38518;53.164;5.430;2022-12-11T04:49:03;2.70;99.90
51619;DHT22;38518;53.164;5.430;2022-12-11T04:51:29;1.60;99.90
51619;DHT22;38518;53.164;5.430;2022-12-11T04:56:21;1.60;99.90
51619;DHT22;38518;53.164;5.430;2022-12-11T04:58:47;2.40;99.90
51619;DHT22;38518;53.164;5.430;2022-12-11T05:01:16;2.50;99.90
51619;DHT22;38518;53.164;5.430;2022-12-11T05:03:42;1.80;99.90
51619;DHT22;38518;53.164;5.430;2022-12-11T05:06:09;3.20;99.90
51619;DHT22;38518;53.164;5.430;2022-12-11T05:08:36;2.40;99.90
51619;DHT22;38518;53.164;5.430;2022-12-11T05:11:07;1.70;99.90
51619;DHT22;38518;53.164;5.430;2022-12-11T05:13:34;1.60;99.90
51619;DHT22;38518;53.164;5.430;2022-12-11T05:16:03;1.80;99.90
51619;DHT22;38518;53.164;5.430;2022-12-11T05:18:29;2.10;99.90
51619;DHT22;38518;53.164;5.430;2022-12-11T05:20:56;2.90;99.90
51619;DHT22;38518;53.164;5.430;2022-12-11T05:23:22;1.80;99.90
51619;DHT22;38518;53.164;5.430;2022-12-11T05:25:56;2.30;99.90
51619;DHT22;38518;53.164;5.430;2022-12-11T05:28:24;1.60;99.90
51619;DHT22;38518;53.164;5.430;2022-12-11T05:30:58;1.70;99.90
51619;DHT22;38518;53.164;5.430;2022-12-11T05:33:24;0.70;99.90
51619;DHT22;38518;53.164;5.430;2022-12-11T05:35:53;2.30;99.90
51619;DHT22;38518;53.164;5.430;2022-12-11T05:38:20;2.40;99.90
51619;DHT22;38518;53.164;5.430;2022-12-11T05:40:55;2.50;99.90
51619;DHT22;38518;53.164;5.430;2022-12-11T05:43:21;1.50;99.90
51619;DHT22;38518;53.164;5.430;2022-12-11T05:45:46;1.70;99.90
51619;DHT22;38518;53.164;5.430;2022-12-11T05:48:12;2.70;99.90
51619;DHT22;38518;53.164;5.430;2022-12-11T05:50:41;1.80;99.90
51619;DHT22;38518;53.164;5.430;2022-12-11T05:53:07;2.80;99.90
51619;DHT22;38518;53.164;5.430;2022-12-11T05:55:36;2.10;99.90
51619;DHT22;38518;53.164;5.430;2022-12-11T05:58:02;2.30;99.90
51619;DHT22;38518;53.164;5.430;2022-12-11T06:00:27;1.40;99.90
51619;DHT22;38518;53.164;5.430;2022-12-11T06:02:53;1.70;99.90
51619;DHT22;38518;53.164;5.430;2022-12-11T06:05:19;2.50;99.90
51619;DHT22;38518;53.164;5.430;2022-12-11T06:07:45;1.40;99.90
51619;DHT22;38518;53.164;5.430;2022-12-11T06:10:11;1.50;99.90
51619;DHT22;38518;53.164;5.430;2022-12-11T06:12:37;1.50;99.90
51619;DHT22;38518;53.164;5.430;2022-12-11T06:15:03;2.60;99.90
51619;DHT22;38518;53.164;5.430;2022-12-11T06:17:30;1.40;99.90
51619;DHT22;38518;53.164;5.430;2022-12-11T06:19:56;1.50;99.90
51619;DHT22;38518;53.164;5.430;2022-12-11T06:22:21;2.80;99.90
51619;DHT22;38518;53.164;5.430;2022-12-11T06:24:47;1.70;99.90
51619;DHT22;38518;53.164;5.430;2022-12-11T06:27:13;2.60;99.90
51619;DHT22;38518;53.164;5.430;2022-12-11T06:29:39;1.40;99.90
51619;DHT22;38518;53.164;5.430;2022-12-11T06:32:05;1.50;99.90
51619;DHT22;38518;53.164;5.430;2022-12-11T06:34:31;1.40;99.90
51619;DHT22;38518;53.164;5.430;2022-12-11T06:36:57;2.60;99.90
51619;DHT22;38518;53.164;5.430;2022-12-11T06:39:23;2.00;99.90
51619;DHT22;38518;53.164;5.430;2022-12-11T06:41:49;1.60;99.90
51619;DHT22;38518;53.164;5.430;2022-12-11T06:44:14;2.00;99.90
51619;DHT22;38518;53.164;5.430;2022-12-11T06:46:40;1.40;99.90
51619;DHT22;38518;53.164;5.430;2022-12-11T06:49:06;1.30;99.90
51619;DHT22;38518;53.164;5.430;2022-12-11T06:51:31;3.00;99.90
51619;DHT22;38518;53.164;5.430;2022-12-11T06:53:57;2.50;99.90
51619;DHT22;38518;53.164;5.430;2022-12-11T06:56:23;0.50;99.90
51619;DHT22;38518;53.164;5.430;2022-12-11T06:58:49;2.40;99.90
51619;DHT22;38518;53.164;5.430;2022-12-11T07:01:24;2.80;99.90
51619;DHT22;38518;53.164;5.430;2022-12-11T07:03:54;1.50;99.90
51619;DHT22;38518;53.164;5.430;2022-12-11T07:06:21;1.70;99.90
51619;DHT22;38518;53.164;5.430;2022-12-11T07:08:47;1.60;99.90
51619;DHT22;38518;53.164;5.430;2022-12-11T07:11:15;1.50;99.90
51619;DHT22;38518;53.164;5.430;2022-12-11T07:13:41;1.50;99.90
51619;DHT22;38518;53.164;5.430;2022-12-11T07:16:08;1.50;99.90
51619;DHT22;38518;53.164;5.430;2022-12-11T07:18:38;1.50;99.90
51619;DHT22;38518;53.164;5.430;2022-12-11T07:21:05;2.60;99.90
51619;DHT22;38518;53.164;5.430;2022-12-11T07:23:34;1.50;99.90
51619;DHT22;38518;53.164;5.430;2022-12-11T07:26:09;2.50;99.90
51619;DHT22;38518;53.164;5.430;2022-12-11T07:28:38;2.60;99.90
51619;DHT22;38518;53.164;5.430;2022-12-11T07:31:09;2.40;99.90
51619;DHT22;38518;53.164;5.430;2022-12-11T07:33:35;2.30;99.90
51619;DHT22;38518;53.164;5.430;2022-12-11T07:36:06;1.70;99.90
51619;DHT22;38518;53.164;5.430;2022-12-11T07:38:35;1.60;99.90
51619;DHT22;38518;53.164;5.430;2022-12-11T07:41:02;2.30;99.90
51619;DHT22;38518;53.164;5.430;2022-12-11T07:43:29;1.50;99.90
51619;DHT22;38518;53.164;5.430;2022-12-11T07:46:02;1.50;99.90
51619;DHT22;38518;53.164;5.430;2022-12-11T07:48:28;2.10;99.90
51619;DHT22;38518;53.164;5.430;2022-12-11T07:50:54;1.70;99.90
51619;DHT22;38518;53.164;5.430;2022-12-11T07:53:19;2.30;99.90
51619;DHT22;38518;53.164;5.430;2022-12-11T07:55:45;2.20;99.90
51619;DHT22;38518;53.164;5.430;2022-12-11T07:58:11;1.60;99.90
51619;DHT22;38518;53.164;5.430;2022-12-11T08:00:37;2.20;99.90
51619;DHT22;38518;53.164;5.430;2022-12-11T08:03:03;2.30;99.90
51619;DHT22;38518;53.164;5.430;2022-12-11T08:05:28;1.30;99.90
51619;DHT22;38518;53.164;5.430;2022-12-11T08:07:54;1.60;99.90
51619;DHT22;38518;53.164;5.430;2022-12-11T08:10:20;2.80;99.90
51619;DHT22;38518;53.164;5.430;2022-12-11T08:12:48;2.70;99.90
51619;DHT22;38518;53.164;5.430;2022-12-11T08:15:14;2.40;99.90
51619;DHT22;38518;53.164;5.430;2022-12-11T08:17:40;1.40;99.90
51619;DHT22;38518;53.164;5.430;2022-12-11T08:20:06;2.00;99.90
51619;DHT22;38518;53.164;5.430;2022-12-11T08:22:33;1.60;99.90
51619;DHT22;38518;53.164;5.430;2022-12-11T08:24:58;2.90;99.90
51619;DHT22;38518;53.164;5.430;2022-12-11T08:27:24;2.60;99.90
51619;DHT22;38518;53.164;5.430;2022-12-11T08:29:51;2.70;99.90
51619;DHT22;38518;53.164;5.430;2022-12-11T08:32:16;2.80;99.90
51619;DHT22;38518;53.164;5.430;2022-12-11T08:34:43;2.40;99.90
51619;DHT22;38518;53.164;5.430;2022-12-11T08:37:09;1.80;99.90
51619;DHT22;38518;53.164;5.430;2022-12-11T08:39:34;3.10;99.90
51619;DHT22;38518;53.164;5.430;2022-12-11T08:42:00;2.30;99.90
51619;DHT22;38518;53.164;5.430;2022-12-11T08:44:26;2.50;99.90
51619;DHT22;38518;53.164;5.430;2022-12-11T08:46:52;3.00;99.90
51619;DHT22;38518;53.164;5.430;2022-12-11T08:49:21;1.70;99.90
51619;DHT22;38518;53.164;5.430;2022-12-11T08:51:46;1.60;99.90
51619;DHT22;38518;53.164;5.430;2022-12-11T08:54:12;1.90;99.90
51619;DHT22;38518;53.164;5.430;2022-12-11T08:56:38;2.10;99.90
51619;DHT22;38518;53.164;5.430;2022-12-11T08:59:04;1.70;99.90
51619;DHT22;38518;53.164;5.430;2022-12-11T09:01:30;2.80;99.90
51619;DHT22;38518;53.164;5.430;2022-12-11T09:03:57;1.10;99.90
51619;DHT22;38518;53.164;5.430;2022-12-11T09:06:25;3.20;99.90
51619;DHT22;38518;53.164;5.430;2022-12-11T09:08:52;1.70;99.90
51619;DHT22;38518;53.164;5.430;2022-12-11T09:11:20;1.90;99.90
51619;DHT22;38518;53.164;5.430;2022-12-11T09:13:47;2.00;99.90
51619;DHT22;38518;53.164;5.430;2022-12-11T09:16:15;3.10;99.90
51619;DHT22;38518;53.164;5.430;2022-12-11T09:18:43;3.00;99.90
51619;DHT22;38518;53.164;5.430;2022-12-11T09:21:12;2.20;99.90
51619;DHT22;38518;53.164;5.430;2022-12-11T09:23:38;1.90;99.90
51619;DHT22;38518;53.164;5.430;2022-12-11T09:26:10;2.80;99.90
51619;DHT22;38518;53.164;5.430;2022-12-11T09:28:37;2.00;99.90
51619;DHT22;38518;53.164;5.430;2022-12-11T09:31:13;2.70;99.90
51619;DHT22;38518;53.164;5.430;2022-12-11T09:33:40;3.70;99.90
51619;DHT22;38518;53.164;5.430;2022-12-11T09:36:06;2.30;99.90
51619;DHT22;38518;53.164;5.430;2022-12-11T09:38:32;2.20;99.90
51619;DHT22;38518;53.164;5.430;2022-12-11T09:40:58;1.10;99.90
51619;DHT22;38518;53.164;5.430;2022-12-11T09:43:43;2.80;99.90
51619;DHT22;38518;53.164;5.430;2022-12-11T09:46:13;2.20;99.90
51619;DHT22;38518;53.164;5.430;2022-12-11T09:48:42;3.30;99.90
51619;DHT22;38518;53.164;5.430;2022-12-11T09:53:45;2.30;99.90
51619;DHT22;38518;53.164;5.430;2022-12-11T09:56:21;2.30;99.90
51619;DHT22;38518;53.164;5.430;2022-12-11T09:59:39;2.40;99.90
51619;DHT22;38518;53.164;5.430;2022-12-11T10:02:22;2.20;99.90
51619;DHT22;38518;53.164;5.430;2022-12-11T10:07:55;2.20;99.90
51619;DHT22;38518;53.164;5.430;2022-12-11T10:10:45;3.40;99.90
51619;DHT22;38518;53.164;5.430;2022-12-11T10:13:21;2.30;99.90
51619;DHT22;38518;53.164;5.430;2022-12-11T10:18:37;2.30;99.90
51619;DHT22;38518;53.164;5.430;2022-12-11T10:21:03;3.50;99.90
51619;DHT22;38518;53.164;5.430;2022-12-11T10:23:42;2.40;99.90
51619;DHT22;38518;53.164;5.430;2022-12-11T10:26:19;2.40;99.90
51619;DHT22;38518;53.164;5.430;2022-12-11T10:28:45;3.40;99.90
51619;DHT22;38518;53.164;5.430;2022-12-11T10:31:37;3.80;99.90
51619;DHT22;38518;53.164;5.430;2022-12-11T10:34:16;2.50;99.90
51619;DHT22;38518;53.164;5.430;2022-12-11T10:36:48;3.60;99.90
51619;DHT22;38518;53.164;5.430;2022-12-11T10:39:17;3.40;99.90
51619;DHT22;38518;53.164;5.430;2022-12-11T10:41:45;2.60;73.80
51619;DHT22;38518;53.164;5.430;2022-12-11T10:44:22;2.80;72.40
51619;DHT22;38518;53.164;5.430;2022-12-11T10:49:29;3.30;7.40
51619;DHT22;38518;53.164;5.430;2022-12-11T10:51:56;4.00;6.00
51619;DHT22;38518;53.164;5.430;2022-12-11T10:56:56;3.00;1.00
51619;DHT22;38518;53.164;5.430;2022-12-11T11:01:58;3.90;1.00
51619;DHT22;38518;53.164;5.430;2022-12-11T11:04:40;3.70;1.00
51619;DHT22;38518;53.164;5.430;2022-12-11T11:07:21;3.80;1.00
51619;DHT22;38518;53.164;5.430;2022-12-11T11:09:48;3.20;1.00
51619;DHT22;38518;53.164;5.430;2022-12-11T11:12:26;4.50;1.00
51619;DHT22;38518;53.164;5.430;2022-12-11T11:15:05;3.80;1.00
51619;DHT22;38518;53.164;5.430;2022-12-11T11:17:39;3.50;99.90
51619;DHT22;38518;53.164;5.430;2022-12-11T11:20:13;3.60;99.90
51619;DHT22;38518;53.164;5.430;2022-12-11T11:22:45;2.80;99.90
51619;DHT22;38518;53.164;5.430;2022-12-11T11:25:20;3.60;99.90
51619;DHT22;38518;53.164;5.430;2022-12-11T11:28:08;3.40;99.90
51619;DHT22;38518;53.164;5.430;2022-12-11T11:30:57;3.40;99.90
51619;DHT22;38518;53.164;5.430;2022-12-11T11:33:24;3.40;99.90
51619;DHT22;38518;53.164;5.430;2022-12-11T11:35:57;5.30;99.90
51619;DHT22;38518;53.164;5.430;2022-12-11T11:38:45;3.00;99.90
51619;DHT22;38518;53.164;5.430;2022-12-11T11:41:24;3.50;99.90
51619;DHT22;38518;53.164;5.430;2022-12-11T11:44:05;4.30;99.90
51619;DHT22;38518;53.164;5.430;2022-12-11T11:51:40;5.30;99.90
51619;DHT22;38518;53.164;5.430;2022-12-11T11:54:27;5.30;99.90
51619;DHT22;38518;53.164;5.430;2022-12-11T11:56:55;5.40;99.90
51619;DHT22;38518;53.164;5.430;2022-12-11T11:59:35;5.80;99.90
51619;DHT22;38518;53.164;5.430;2022-12-11T12:02:14;7.10;99.90
51619;DHT22;38518;53.164;5.430;2022-12-11T12:04:40;6.40;99.90
51619;DHT22;38518;53.164;5.430;2022-12-11T12:12:52;6.50;91.20
51619;DHT22;38518;53.164;5.430;2022-12-11T12:18:49;6.50;62.70
51619;DHT22;38518;53.164;5.430;2022-12-11T12:24:01;6.10;55.60
51619;DHT22;38518;53.164;5.430;2022-12-11T12:26:35;5.90;63.00
51619;DHT22;38518;53.164;5.430;2022-12-11T12:29:05;5.80;52.60
51619;DHT22;38518;53.164;5.430;2022-12-11T12:34:09;5.80;75.10
51619;DHT22;38518;53.164;5.430;2022-12-11T12:42:43;5.70;62.40
51619;DHT22;38518;53.164;5.430;2022-12-11T12:47:41;5.60;76.50
51619;DHT22;38518;53.164;5.430;2022-12-11T12:50:11;6.70;66.60
51619;DHT22;38518;53.164;5.430;2022-12-11T12:52:39;5.50;59.50
51619;DHT22;38518;53.164;5.430;2022-12-11T12:55:15;5.10;57.40
51619;DHT22;38518;53.164;5.430;2022-12-11T13:02:51;5.60;94.70
51619;DHT22;38518;53.164;5.430;2022-12-11T13:05:29;5.80;99.90
51619;DHT22;38518;53.164;5.430;2022-12-11T13:08:02;5.10;87.50
51619;DHT22;38518;53.164;5.430;2022-12-11T13:10:34;5.00;88.40
51619;DHT22;38518;53.164;5.430;2022-12-11T13:13:02;6.40;93.60
51619;DHT22;38518;53.164;5.430;2022-12-11T13:15:40;6.10;90.90
51619;DHT22;38518;53.164;5.430;2022-12-11T13:18:38;6.50;82.80
51619;DHT22;38518;53.164;5.430;2022-12-11T13:21:24;5.50;67.50
51619;DHT22;38518;53.164;5.430;2022-12-11T13:23:51;5.30;73.90
51619;DHT22;38518;53.164;5.430;2022-12-11T13:26:28;5.90;69.80
51619;DHT22;38518;53.164;5.430;2022-12-11T13:28:57;6.10;58.70
51619;DHT22;38518;53.164;5.430;2022-12-11T13:31:37;4.90;65.00
51619;DHT22;38518;53.164;5.430;2022-12-11T13:34:22;4.80;81.50
51619;DHT22;38518;53.164;5.430;2022-12-11T13:36:50;4.30;91.60
51619;DHT22;38518;53.164;5.430;2022-12-11T13:39:30;5.00;85.10
51619;DHT22;38518;53.164;5.430;2022-12-11T13:42:00;5.30;92.10
51619;DHT22;38518;53.164;5.430;2022-12-11T13:44:29;5.40;93.70
51619;DHT22;38518;53.164;5.430;2022-12-11T13:46:58;4.10;94.10
51619;DHT22;38518;53.164;5.430;2022-12-11T13:49:28;4.20;96.10
51619;DHT22;38518;53.164;5.430;2022-12-11T13:51:59;3.80;98.10
51619;DHT22;38518;53.164;5.430;2022-12-11T13:54:26;4.30;99.90
51619;DHT22;38518;53.164;5.430;2022-12-11T13:59:37;3.20;99.90
51619;DHT22;38518;53.164;5.430;2022-12-11T14:04:58;3.00;99.90
51619;DHT22;38518;53.164;5.430;2022-12-11T14:07:31;3.60;99.90
51619;DHT22;38518;53.164;5.430;2022-12-11T14:10:05;1.40;99.90
51619;DHT22;38518;53.164;5.430;2022-12-11T14:12:35;2.90;99.90
51619;DHT22;38518;53.164;5.430;2022-12-11T14:15:02;2.40;99.90
51619;DHT22;38518;53.164;5.430;2022-12-11T14:17:33;2.50;99.90
51619;DHT22;38518;53.164;5.430;2022-12-11T14:20:02;2.90;99.90
51619;DHT22;38518;53.164;5.430;2022-12-11T14:22:31;2.50;99.90
51619;DHT22;38518;53.164;5.430;2022-12-11T14:25:11;3.40;99.90
51619;DHT22;38518;53.164;5.430;2022-12-11T14:27:51;3.90;99.90
51619;DHT22;38518;53.164;5.430;2022-12-11T14:30:23;2.40;99.90
51619;DHT22;38518;53.164;5.430;2022-12-11T14:32:51;2.50;99.90
51619;DHT22;38518;53.164;5.430;2022-12-11T14:35:39;3.50;99.90
51619;DHT22;38518;53.164;5.430;2022-12-11T14:38:17;2.70;99.90
51619;DHT22;38518;53.164;5.430;2022-12-11T14:40:46;3.00;99.90
51619;DHT22;38518;53.164;5.430;2022-12-11T14:43:21;2.70;99.90
51619;DHT22;38518;53.164;5.430;2022-12-11T14:45:48;3.90;99.90
51619;DHT22;38518;53.164;5.430;2022-12-11T14:48:26;4.00;99.90
51619;DHT22;38518;53.164;5.430;2022-12-11T14:50:55;3.40;99.90
51619;DHT22;38518;53.164;5.430;2022-12-11T14:55:53;2.50;99.90
51619;DHT22;38518;53.164;5.430;2022-12-11T14:58:24;2.90;99.90
51619;DHT22;38518;53.164;5.430;2022-12-11T15:00:59;3.50;99.90
51619;DHT22;38518;53.164;5.430;2022-12-11T15:03:37;1.70;99.90
51619;DHT22;38518;53.164;5.430;2022-12-11T15:06:23;2.90;99.90
51619;DHT22;38518;53.164;5.430;2022-12-11T15:08:50;2.10;99.90
51619;DHT22;38518;53.164;5.430;2022-12-11T15:11:17;1.60;99.90
51619;DHT22;38518;53.164;5.430;2022-12-11T15:13:51;2.80;99.90
51619;DHT22;38518;53.164;5.430;2022-12-11T15:16:18;1.70;99.90
51619;DHT22;38518;53.164;5.430;2022-12-11T15:18:47;2.50;99.90
51619;DHT22;38518;53.164;5.430;2022-12-11T15:26:12;1.60;99.90
51619;DHT22;38518;53.164;5.430;2022-12-11T15:28:38;1.80;99.90
51619;DHT22;38518;53.164;5.430;2022-12-11T15:31:19;0.50;99.90
51619;DHT22;38518;53.164;5.430;2022-12-11T15:33:47;2.70;99.90
51619;DHT22;38518;53.164;5.430;2022-12-11T15:38:57;1.20;99.90
51619;DHT22;38518;53.164;5.430;2022-12-11T15:41:24;2.20;99.90
51619;DHT22;38518;53.164;5.430;2022-12-11T15:43:58;2.50;99.90
51619;DHT22;38518;53.164;5.430;2022-12-11T15:46:25;1.20;99.90
51619;DHT22;38518;53.164;5.430;2022-12-11T15:48:51;2.20;99.90
51619;DHT22;38518;53.164;5.430;2022-12-11T15:51:17;2.60;99.90
51619;DHT22;38518;53.164;5.430;2022-12-11T15:53:43;2.70;99.90
51619;DHT22;38518;53.164;5.430;2022-12-11T15:56:13;1.70;99.90
51619;DHT22;38518;53.164;5.430;2022-12-11T15:58:39;1.40;99.90
51619;DHT22;38518;53.164;5.430;2022-12-11T16:01:05;1.10;99.90
51619;DHT22;38518;53.164;5.430;2022-12-11T16:03:31;2.70;99.90
51619;DHT22;38518;53.164;5.430;2022-12-11T16:05:57;2.60;99.90
51619;DHT22;38518;53.164;5.430;2022-12-11T16:08:23;1.60;99.90
51619;DHT22;38518;53.164;5.430;2022-12-11T16:10:52;2.00;99.90
51619;DHT22;38518;53.164;5.430;2022-12-11T16:13:18;1.10;99.90
51619;DHT22;38518;53.164;5.430;2022-12-11T16:15:46;2.70;99.90
51619;DHT22;38518;53.164;5.430;2022-12-11T16:18:18;2.20;99.90
51619;DHT22;38518;53.164;5.430;2022-12-11T16:20:45;1.20;99.90
51619;DHT22;38518;53.164;5.430;2022-12-11T16:23:12;2.10;99.90
51619;DHT22;38518;53.164;5.430;2022-12-11T16:25:40;1.10;99.90
51619;DHT22;38518;53.164;5.430;2022-12-11T16:28:07;1.00;99.90
51619;DHT22;38518;53.164;5.430;2022-12-11T16:30:34;2.90;99.90
51619;DHT22;38518;53.164;5.430;2022-12-11T16:33:01;2.40;99.90
51619;DHT22;38518;53.164;5.430;2022-12-11T16:35:28;0.90;99.90
51619;DHT22;38518;53.164;5.430;2022-12-11T16:37:53;-0.60;99.90
51619;DHT22;38518;53.164;5.430;2022-12-11T16:40:20;1.20;99.90
51619;DHT22;38518;53.164;5.430;2022-12-11T16:42:46;2.60;99.90
51619;DHT22;38518;53.164;5.430;2022-12-11T16:45:16;2.20;99.90
51619;DHT22;38518;53.164;5.430;2022-12-11T16:47:42;1.00;99.90
51619;DHT22;38518;53.164;5.430;2022-12-11T16:50:09;2.70;99.90
51619;DHT22;38518;53.164;5.430;2022-12-11T16:52:35;1.00;99.90
51619;DHT22;38518;53.164;5.430;2022-12-11T16:55:01;1.00;99.90
51619;DHT22;38518;53.164;5.430;2022-12-11T16:57:27;2.50;99.90
51619;DHT22;38518;53.164;5.430;2022-12-11T16:59:53;1.10;99.90
51619;DHT22;38518;53.164;5.430;2022-12-11T17:02:21;1.50;99.90
51619;DHT22;38518;53.164;5.430;2022-12-11T17:04:47;1.60;99.90
51619;DHT22;38518;53.164;5.430;2022-12-11T17:07:13;1.00;99.90
51619;DHT22;38518;53.164;5.430;2022-12-11T17:09:40;0.20;99.90
51619;DHT22;38518;53.164;5.430;2022-12-11T17:12:06;2.50;99.90
51619;DHT22;38518;53.164;5.430;2022-12-11T17:14:32;1.10;99.90
51619;DHT22;38518;53.164;5.430;2022-12-11T17:16:58;1.20;99.90
51619;DHT22;38518;53.164;5.430;2022-12-11T17:19:24;1.00;99.90
51619;DHT22;38518;53.164;5.430;2022-12-11T17:21:50;1.70;99.90
51619;DHT22;38518;53.164;5.430;2022-12-11T17:24:16;1.80;1.00
51619;DHT22;38518;53.164;5.430;2022-12-11T17:26:42;1.00;99.90